createdAt,value
2022-12-03T00:00:12.976Z,10.82
2022-12-03T00:02:40.201Z,11.77
2022-12-03T00:05:07.242Z,11.25
2022-12-03T00:07:33.660Z,11.77
2022-12-03T00:10:00.182Z,10.65
2022-12-03T00:12:26.536Z,11.88
2022-12-03T00:14:53.023Z,11.32
2022-12-03T00:17:19.495Z,11.80
2022-12-03T00:19:45.849Z,11.80
2022-12-03T00:22:12.895Z,10.90
2022-12-03T00:24:39.479Z,10.85
2022-12-03T00:27:05.873Z,12.10
2022-12-03T00:29:32.243Z,11.45
2022-12-03T00:31:58.789Z,11.95
2022-12-03T00:34:25.136Z,11.70
2022-12-03T00:36:51.531Z,11.40
2022-12-03T00:39:17.908Z,11.00
2022-12-03T00:41:44.296Z,11.05
2022-12-03T00:44:11.895Z,11.38
2022-12-03T00:46:38.473Z,10.95
2022-12-03T00:49:05.002Z,11.70
2022-12-03T00:51:31.389Z,11.38
2022-12-03T00:53:57.778Z,11.55
2022-12-03T00:56:24.158Z,11.25
2022-12-03T00:58:50.722Z,11.25
2022-12-03T01:01:17.133Z,11.18
2022-12-03T01:03:43.529Z,12.13
2022-12-03T01:06:09.913Z,11.23
2022-12-03T01:08:36.284Z,11.73
2022-12-03T01:11:02.671Z,11.15
2022-12-03T01:13:29.159Z,11.75
2022-12-03T01:15:55.589Z,10.55
2022-12-03T01:18:22.063Z,10.82
2022-12-03T01:20:48.472Z,11.68
2022-12-03T01:23:14.820Z,11.55
2022-12-03T01:25:41.268Z,10.43
2022-12-03T01:28:07.655Z,11.40
2022-12-03T01:30:54.061Z,10.52
2022-12-03T01:33:20.463Z,10.40
2022-12-03T01:35:46.853Z,10.57
2022-12-03T01:38:13.210Z,10.77
2022-12-03T01:40:39.608Z,10.98
2022-12-03T01:43:05.961Z,10.25
2022-12-03T01:45:32.348Z,9.63
2022-12-03T01:47:58.752Z,11.05
2022-12-03T01:50:33.738Z,10.40
2022-12-03T01:53:03.001Z,10.55
2022-12-03T01:55:29.934Z,10.10
2022-12-03T01:57:59.579Z,10.88
2022-12-03T02:00:27.795Z,11.15
2022-12-03T02:02:59.511Z,10.48
2022-12-03T02:05:28.749Z,10.93
2022-12-03T02:07:56.029Z,10.50
2022-12-03T02:10:32.400Z,10.18
2022-12-03T02:13:07.759Z,10.07
2022-12-03T02:15:35.175Z,10.38
2022-12-03T02:18:02.100Z,10.20
2022-12-03T02:20:33.019Z,10.48
2022-12-03T02:23:23.893Z,10.50
2022-12-03T02:25:50.257Z,11.90
2022-12-03T02:28:16.709Z,11.05
2022-12-03T02:30:43.160Z,9.90
2022-12-03T02:33:09.548Z,10.10
2022-12-03T02:35:37.098Z,11.15
2022-12-03T02:38:18.395Z,10.27
2022-12-03T02:40:47.055Z,9.93
2022-12-03T02:43:16.641Z,10.60
2022-12-03T02:45:46.208Z,10.17
2022-12-03T02:48:19.651Z,10.30
2022-12-03T02:50:50.071Z,10.75
2022-12-03T02:55:49.662Z,11.13
2022-12-03T02:58:16.800Z,10.63
2022-12-03T03:00:43.968Z,10.63
2022-12-03T03:03:10.749Z,10.63
2022-12-03T03:05:39.658Z,10.45
2022-12-03T03:08:08.818Z,10.40
2022-12-03T03:10:37.597Z,11.18
2022-12-03T03:13:10.035Z,10.52
2022-12-03T03:15:37.932Z,10.90
2022-12-03T03:18:05.424Z,11.00
2022-12-03T03:20:32.041Z,11.85
2022-12-03T03:23:20.998Z,10.32
2022-12-03T03:25:51.516Z,10.15
2022-12-03T03:28:18.376Z,10.82
2022-12-03T03:30:45.456Z,11.52
2022-12-03T03:33:13.505Z,11.43
2022-12-03T03:35:40.723Z,10.85
2022-12-03T03:38:07.931Z,9.32
2022-12-03T03:40:34.584Z,10.10
2022-12-03T03:43:01.184Z,9.98
2022-12-03T03:45:29.560Z,10.52
2022-12-03T03:47:57.807Z,11.30
2022-12-03T03:50:24.723Z,11.52
2022-12-03T03:52:51.328Z,11.73
2022-12-03T03:55:19.032Z,11.68
2022-12-03T03:57:45.443Z,11.90
2022-12-03T04:00:12.428Z,11.70
2022-12-03T04:02:38.918Z,11.10
2022-12-03T04:05:05.813Z,9.65
2022-12-03T04:07:32.217Z,10.25
2022-12-03T04:09:58.599Z,10.32
2022-12-03T04:12:43.726Z,10.45
2022-12-03T04:15:10.332Z,10.20
2022-12-03T04:17:36.704Z,10.60
2022-12-03T04:20:03.647Z,10.57
2022-12-03T04:22:42.114Z,11.30
2022-12-03T04:25:28.655Z,11.02
2022-12-03T04:28:13.942Z,11.23
2022-12-03T04:30:40.373Z,11.18
2022-12-03T04:33:25.635Z,11.90
2022-12-03T04:35:52.948Z,11.50
2022-12-03T04:38:19.332Z,12.43
2022-12-03T04:41:06.526Z,11.90
2022-12-03T04:43:34.552Z,12.40
2022-12-03T04:46:02.118Z,12.25
2022-12-03T04:48:28.614Z,11.88
2022-12-03T04:50:54.980Z,12.43
2022-12-03T04:53:21.349Z,12.32
2022-12-03T04:55:47.760Z,12.38
2022-12-03T04:58:14.126Z,13.50
2022-12-03T05:00:40.540Z,12.52
2022-12-03T05:03:06.984Z,12.77
2022-12-03T05:05:33.397Z,12.55
2022-12-03T05:07:59.866Z,12.63
2022-12-03T05:10:26.339Z,12.52
2022-12-03T05:12:52.692Z,12.95
2022-12-03T05:15:19.050Z,13.25
2022-12-03T05:17:45.407Z,12.93
2022-12-03T05:20:31.074Z,12.25
2022-12-03T05:22:57.419Z,13.55
2022-12-03T05:25:23.802Z,13.20
2022-12-03T05:27:50.162Z,14.32
2022-12-03T05:30:16.825Z,13.52
2022-12-03T05:32:43.178Z,14.75
2022-12-03T05:35:10.189Z,13.27
2022-12-03T05:37:36.587Z,13.73
2022-12-03T05:40:03.817Z,13.77
2022-12-03T05:42:48.768Z,14.10
2022-12-03T05:45:15.218Z,14.02
2022-12-03T05:47:41.564Z,13.88
2022-12-03T05:50:08.271Z,14.10
2022-12-03T05:52:34.640Z,13.13
2022-12-03T05:55:03.098Z,12.70
2022-12-03T05:57:29.445Z,12.63
2022-12-03T05:59:55.866Z,12.43
2022-12-03T06:02:22.310Z,12.55
2022-12-03T06:04:48.848Z,13.35
2022-12-03T06:07:30.522Z,13.05
2022-12-03T06:09:56.980Z,12.35
2022-12-03T06:12:23.328Z,12.05
2022-12-03T06:14:49.748Z,12.52
2022-12-03T06:17:16.177Z,13.00
2022-12-03T06:19:42.551Z,14.07
2022-12-03T06:22:08.891Z,14.75
2022-12-03T06:24:35.262Z,20.27
2022-12-03T06:27:01.628Z,24.55
2022-12-03T06:29:27.999Z,20.67
2022-12-03T06:31:54.334Z,18.67
2022-12-03T06:34:21.433Z,41.28
2022-12-03T06:36:49.968Z,28.05
2022-12-03T06:39:17.337Z,30.10
2022-12-03T06:41:43.738Z,27.45
2022-12-03T06:44:10.430Z,30.83
2022-12-03T06:46:36.979Z,26.23
2022-12-03T06:49:03.766Z,27.67
2022-12-03T06:51:30.126Z,42.67
2022-12-03T06:53:56.498Z,31.20
2022-12-03T06:56:22.884Z,16.50
2022-12-03T06:58:49.257Z,19.95
2022-12-03T07:01:15.669Z,17.17
2022-12-03T07:03:42.067Z,17.00
2022-12-03T07:06:08.479Z,16.80
2022-12-03T07:08:35.185Z,14.68
2022-12-03T07:11:01.584Z,18.70
2022-12-03T07:13:27.950Z,15.35
2022-12-03T07:15:54.409Z,14.70
2022-12-03T07:18:20.801Z,17.98
2022-12-03T07:20:47.186Z,14.15
2022-12-03T07:23:13.523Z,13.07
2022-12-03T07:25:39.898Z,13.32
2022-12-03T07:28:06.260Z,13.02
2022-12-03T07:30:32.662Z,12.75
2022-12-03T07:32:59.004Z,13.40
2022-12-03T07:35:25.370Z,12.85
2022-12-03T07:37:51.742Z,13.93
2022-12-03T07:40:18.204Z,14.35
2022-12-03T07:42:44.539Z,13.13
2022-12-03T07:45:11.141Z,13.32
2022-12-03T07:47:37.558Z,13.32
2022-12-03T07:50:04.118Z,13.57
2022-12-03T07:52:30.461Z,13.23
2022-12-03T07:54:56.872Z,13.77
2022-12-03T07:57:23.235Z,14.38
2022-12-03T07:59:49.600Z,12.60
2022-12-03T08:02:21.130Z,12.02
2022-12-03T08:04:48.310Z,13.30
2022-12-03T08:07:14.679Z,12.02
2022-12-03T08:09:42.011Z,12.77
2022-12-03T08:12:15.908Z,11.93
2022-12-03T08:14:42.601Z,12.40
2022-12-03T08:17:15.063Z,12.77
2022-12-03T08:19:46.345Z,13.25
2022-12-03T08:22:14.421Z,14.38
2022-12-03T08:24:41.421Z,13.30
2022-12-03T08:27:26.055Z,14.88
2022-12-03T08:30:01.417Z,16.75
2022-12-03T08:32:27.761Z,14.30
2022-12-03T08:34:54.354Z,14.48
2022-12-03T08:37:20.860Z,14.02
2022-12-03T08:39:53.203Z,15.93
2022-12-03T08:42:41.707Z,17.88
2022-12-03T08:45:35.143Z,14.57
2022-12-03T08:48:34.734Z,14.43
2022-12-03T08:51:20.627Z,17.45
2022-12-03T08:54:01.774Z,13.38
2022-12-03T08:56:30.471Z,12.52
2022-12-03T08:58:59.428Z,16.02
2022-12-03T09:01:37.404Z,13.65
2022-12-03T09:04:45.040Z,14.65
2022-12-03T09:07:11.417Z,13.32
2022-12-03T09:09:37.820Z,14.73
2022-12-03T09:12:04.491Z,13.25
2022-12-03T09:14:31.182Z,17.08
2022-12-03T09:16:57.646Z,13.93
2022-12-03T09:19:27.810Z,15.05
2022-12-03T09:21:54.777Z,13.93
2022-12-03T09:24:21.474Z,15.85
2022-12-03T09:26:47.899Z,14.38
2022-12-03T09:29:14.351Z,14.38
2022-12-03T09:31:40.943Z,15.23
2022-12-03T09:34:07.998Z,14.73
2022-12-03T09:36:34.464Z,15.30
2022-12-03T09:39:00.877Z,15.43
2022-12-03T09:41:27.687Z,15.43
2022-12-03T09:44:17.171Z,16.88
2022-12-03T09:46:41.806Z,17.45
2022-12-03T09:49:15.832Z,16.75
2022-12-03T09:51:43.946Z,19.90
2022-12-03T09:54:16.461Z,16.20
2022-12-03T09:56:42.884Z,16.45
2022-12-03T09:59:14.297Z,16.58
2022-12-03T10:01:41.043Z,16.85
2022-12-03T10:04:07.878Z,16.05
2022-12-03T10:06:34.378Z,17.25
2022-12-03T10:09:00.993Z,15.90
2022-12-03T10:11:28.767Z,14.75
2022-12-03T10:13:57.348Z,14.30
2022-12-03T10:16:24.596Z,14.30
2022-12-03T10:18:54.284Z,13.32
2022-12-03T10:21:25.886Z,13.88
2022-12-03T10:24:17.211Z,13.77
2022-12-03T10:26:45.406Z,13.93
2022-12-03T10:29:13.278Z,13.43
2022-12-03T10:31:40.121Z,14.18
2022-12-03T10:34:06.627Z,13.80
2022-12-03T10:36:33.239Z,14.38
2022-12-03T10:39:14.534Z,14.45
2022-12-03T10:41:42.576Z,13.50
2022-12-03T10:44:15.278Z,14.18
2022-12-03T10:46:41.807Z,13.43
2022-12-03T10:49:19.053Z,13.70
2022-12-03T10:51:48.889Z,13.75
2022-12-03T10:54:21.658Z,14.80
2022-12-03T10:56:52.320Z,13.48
2022-12-03T10:59:22.247Z,14.23
2022-12-03T11:01:49.623Z,14.60
2022-12-03T11:04:31.734Z,14.02
2022-12-03T11:06:58.323Z,14.10
2022-12-03T11:09:28.616Z,15.32
2022-12-03T11:11:55.727Z,14.57
2022-12-03T11:14:54.346Z,14.73
2022-12-03T11:17:47.386Z,16.05
2022-12-03T11:20:22.946Z,15.20
2022-12-03T11:22:54.062Z,14.93
2022-12-03T11:25:29.460Z,17.13
2022-12-03T11:28:14.347Z,19.27
2022-12-03T11:30:50.575Z,16.40
2022-12-03T11:33:35.161Z,18.33
2022-12-03T11:36:04.623Z,15.18
2022-12-03T11:38:40.989Z,17.75
2022-12-03T11:41:23.774Z,16.45
2022-12-03T11:43:53.284Z,16.80
2022-12-03T11:46:38.175Z,16.50
2022-12-03T11:49:28.622Z,16.40
2022-12-03T11:51:55.415Z,16.85
2022-12-03T11:54:23.293Z,17.80
2022-12-03T11:56:51.898Z,17.08
2022-12-03T11:59:19.175Z,16.73
2022-12-03T12:01:46.283Z,17.77
2022-12-03T12:04:35.674Z,16.30
2022-12-03T12:07:02.442Z,17.80
2022-12-03T12:09:54.858Z,16.58
2022-12-03T12:12:51.111Z,15.75
2022-12-03T12:15:40.309Z,15.90
2022-12-03T12:18:34.740Z,16.77
2022-12-03T12:21:39.754Z,15.18
2022-12-03T12:24:40.763Z,15.65
2022-12-03T12:27:10.032Z,21.88
2022-12-03T12:29:39.624Z,16.70
2022-12-03T12:32:09.037Z,16.70
2022-12-03T12:34:40.828Z,16.60
2022-12-03T12:37:13.568Z,16.05
2022-12-03T12:39:40.058Z,16.05
2022-12-03T12:42:20.858Z,15.63
2022-12-03T12:44:49.835Z,14.88
2022-12-03T12:47:16.295Z,15.52
2022-12-03T12:49:46.158Z,16.08
2022-12-03T12:52:15.214Z,15.25
2022-12-03T12:54:41.826Z,15.70
2022-12-03T12:57:20.825Z,17.60
2022-12-03T12:59:47.335Z,15.88
2022-12-03T13:02:25.281Z,14.82
2022-12-03T13:04:51.816Z,14.27
2022-12-03T13:07:18.272Z,15.13
2022-12-03T13:09:44.780Z,15.18
2022-12-03T13:12:21.076Z,14.98
2022-12-03T13:14:47.831Z,14.48
2022-12-03T13:17:18.659Z,15.60
2022-12-03T13:19:48.638Z,15.20
2022-12-03T13:22:30.156Z,15.65
2022-12-03T13:24:58.604Z,15.73
2022-12-03T13:27:31.039Z,16.75
2022-12-03T13:30:15.587Z,16.77
2022-12-03T13:32:43.208Z,17.60
2022-12-03T13:35:09.544Z,17.92
2022-12-03T13:37:37.197Z,24.38
2022-12-03T13:40:35.168Z,17.65
2022-12-03T13:43:14.251Z,17.25
2022-12-03T13:45:47.287Z,18.80
2022-12-03T13:48:21.283Z,23.25
2022-12-03T13:50:47.966Z,22.13
2022-12-03T13:53:25.043Z,18.90
2022-12-03T13:55:56.788Z,17.60
2022-12-03T13:58:23.214Z,18.45
2022-12-03T14:00:49.620Z,20.17
2022-12-03T14:03:16.020Z,19.23
2022-12-03T14:05:42.384Z,20.33
2022-12-03T14:08:08.843Z,28.17
2022-12-03T14:10:35.243Z,22.23
2022-12-03T14:13:01.722Z,20.75
2022-12-03T14:15:28.117Z,22.52
2022-12-03T14:17:54.585Z,19.42
2022-12-03T14:20:20.984Z,19.73
2022-12-03T14:22:47.437Z,21.40
2022-12-03T14:25:13.836Z,28.20
2022-12-03T14:27:40.219Z,22.88
2022-12-03T14:30:07.263Z,17.60
2022-12-03T14:32:33.749Z,18.58
2022-12-03T14:35:02.802Z,17.05
2022-12-03T14:37:31.628Z,17.52
2022-12-03T14:39:58.147Z,17.20
2022-12-03T14:42:24.534Z,18.42
2022-12-03T14:44:51.824Z,16.98
2022-12-03T14:47:22.464Z,16.75
2022-12-03T14:49:49.998Z,14.50
2022-12-03T14:52:17.209Z,14.25
2022-12-03T14:54:44.035Z,15.07
2022-12-03T14:57:12.745Z,14.35
2022-12-03T14:59:41.064Z,13.90
2022-12-03T15:02:08.443Z,14.07
2022-12-03T15:04:34.855Z,16.73
2022-12-03T15:07:01.287Z,15.85
2022-12-03T15:09:27.667Z,14.43
2022-12-03T15:11:54.230Z,17.75
2022-12-03T15:14:20.623Z,14.00
2022-12-03T15:16:47.133Z,13.27
2022-12-03T15:19:13.639Z,13.70
2022-12-03T15:21:40.229Z,14.35
2022-12-03T15:24:07.006Z,14.77
2022-12-03T15:26:33.396Z,14.10
2022-12-03T15:28:59.783Z,14.93
2022-12-03T15:31:26.270Z,15.15
2022-12-03T15:33:52.721Z,14.45
2022-12-03T15:36:19.220Z,14.68
2022-12-03T15:38:45.693Z,14.60
2022-12-03T15:41:21.762Z,13.52
2022-12-03T15:43:48.718Z,14.70
2022-12-03T15:46:15.206Z,15.30
2022-12-03T15:48:41.630Z,15.93
2022-12-03T15:51:08.038Z,16.77
2022-12-03T15:53:34.545Z,17.05
2022-12-03T15:56:00.917Z,15.60
2022-12-03T15:58:27.268Z,15.80
2022-12-03T16:00:53.697Z,15.55
2022-12-03T16:03:20.157Z,16.45
2022-12-03T16:05:46.605Z,15.73
2022-12-03T16:08:13.032Z,15.98
2022-12-03T16:10:39.458Z,15.27
2022-12-03T16:13:05.876Z,20.88
2022-12-03T16:15:32.311Z,35.72
2022-12-03T16:17:58.711Z,38.35
2022-12-03T16:20:25.089Z,33.83
2022-12-03T16:22:52.014Z,22.50
2022-12-03T16:25:18.431Z,30.10
2022-12-03T16:27:44.888Z,28.70
2022-12-03T16:30:11.867Z,19.95
2022-12-03T16:32:38.299Z,17.95
2022-12-03T16:35:05.135Z,17.52
2022-12-03T16:37:31.522Z,16.05
2022-12-03T16:39:57.863Z,17.52
2022-12-03T16:42:24.698Z,17.45
2022-12-03T16:45:11.462Z,17.17
2022-12-03T16:47:38.183Z,19.50
2022-12-03T16:50:07.711Z,17.48
2022-12-03T16:52:34.844Z,17.47
2022-12-03T16:55:01.519Z,17.90
2022-12-03T16:57:33.337Z,17.50
2022-12-03T17:00:00.428Z,17.38
2022-12-03T17:02:27.688Z,17.35
2022-12-03T17:04:54.196Z,17.65
2022-12-03T17:07:20.721Z,18.08
2022-12-03T17:09:47.195Z,17.38
2022-12-03T17:12:13.644Z,17.67
2022-12-03T17:14:40.010Z,17.25
2022-12-03T17:17:06.424Z,17.95
2022-12-03T17:19:32.793Z,17.23
2022-12-03T17:21:59.784Z,17.75
2022-12-03T17:24:26.178Z,17.92
2022-12-03T17:26:52.626Z,18.63
2022-12-03T17:29:19.021Z,18.42
2022-12-03T17:31:45.587Z,16.70
2022-12-03T17:34:12.056Z,17.70
2022-12-03T17:36:38.433Z,16.42
2022-12-03T17:39:04.807Z,17.20
2022-12-03T17:41:31.189Z,15.73
2022-12-03T17:43:57.560Z,15.35
2022-12-03T17:46:24.086Z,17.02
2022-12-03T17:48:50.687Z,15.32
2022-12-03T17:51:19.185Z,14.75
2022-12-03T17:53:45.537Z,14.88
2022-12-03T17:56:12.146Z,15.20
2022-12-03T17:58:38.513Z,17.38
2022-12-03T18:01:05.712Z,15.40
2022-12-03T18:03:32.173Z,18.92
2022-12-03T18:05:58.663Z,18.52
2022-12-03T18:08:25.085Z,18.83
2022-12-03T18:10:51.649Z,18.63
2022-12-03T18:13:18.294Z,19.40
2022-12-03T18:15:44.895Z,19.20
2022-12-03T18:18:11.563Z,19.25
2022-12-03T18:20:38.124Z,20.38
2022-12-03T18:23:04.872Z,19.38
2022-12-03T18:25:31.300Z,22.50
2022-12-03T18:27:58.149Z,25.70
2022-12-03T18:30:24.583Z,28.50
2022-12-03T18:32:51.213Z,25.83
2022-12-03T18:35:18.013Z,22.00
2022-12-03T18:37:45.211Z,21.08
2022-12-03T18:40:17.541Z,21.48
2022-12-03T18:42:44.003Z,19.75
2022-12-03T18:45:11.615Z,20.77
2022-12-03T18:47:38.211Z,27.63
2022-12-03T18:50:05.964Z,22.40
2022-12-03T18:52:32.352Z,26.08
2022-12-03T18:54:58.824Z,23.90
2022-12-03T18:57:25.254Z,22.98
2022-12-03T18:59:51.973Z,27.17
2022-12-03T19:03:01.949Z,23.60
2022-12-03T19:05:10.140Z,23.90
2022-12-03T19:07:37.070Z,23.83
2022-12-03T19:10:04.072Z,24.13
2022-12-03T19:12:31.138Z,22.50
2022-12-03T19:14:57.561Z,22.85
2022-12-03T19:17:24.057Z,21.38
2022-12-03T19:19:50.521Z,22.17
2022-12-03T19:22:16.974Z,22.25
2022-12-03T19:24:43.800Z,20.60
2022-12-03T19:27:10.284Z,22.17
2022-12-03T19:29:36.668Z,23.33
2022-12-03T19:32:03.375Z,22.67
2022-12-03T19:34:29.879Z,20.00
2022-12-03T19:36:56.364Z,21.42
2022-12-03T19:39:22.736Z,21.70
2022-12-03T19:41:49.340Z,18.38
2022-12-03T19:44:17.337Z,19.17
2022-12-03T19:46:44.128Z,20.38
2022-12-03T19:49:11.013Z,20.80
2022-12-03T19:51:37.563Z,19.52
2022-12-03T19:54:06.444Z,24.27
2022-12-03T19:56:33.433Z,21.58
2022-12-03T19:58:59.920Z,20.10
2022-12-03T20:01:29.461Z,20.85
2022-12-03T20:03:58.031Z,20.92
2022-12-03T20:06:27.668Z,19.70
2022-12-03T20:09:17.765Z,19.73
2022-12-03T20:11:45.833Z,21.48
2022-12-03T20:14:15.232Z,20.38
2022-12-03T20:16:42.414Z,21.45
2022-12-03T20:19:11.580Z,20.33
2022-12-03T20:21:39.443Z,21.13
2022-12-03T20:24:07.523Z,20.60
2022-12-03T20:26:34.281Z,21.08
2022-12-03T20:29:01.011Z,20.23
2022-12-03T20:31:29.890Z,20.33
2022-12-03T20:33:59.043Z,20.45
2022-12-03T20:36:26.477Z,19.90
2022-12-03T20:38:57.711Z,19.98
2022-12-03T20:41:24.941Z,20.05
2022-12-03T20:43:51.830Z,21.25
2022-12-03T20:46:25.437Z,21.80
2022-12-03T20:48:53.899Z,20.65
2022-12-03T20:51:22.309Z,21.70
2022-12-03T20:53:49.137Z,21.90
2022-12-03T20:56:24.544Z,21.92
2022-12-03T20:58:51.088Z,22.48
2022-12-03T21:01:20.504Z,23.85
2022-12-03T21:03:47.546Z,22.93
2022-12-03T21:06:15.491Z,24.20
2022-12-03T21:08:43.151Z,27.13
2022-12-03T21:11:11.899Z,24.73
2022-12-03T21:13:41.553Z,29.13
2022-12-03T21:16:09.561Z,38.58
2022-12-03T21:18:36.150Z,25.83
2022-12-03T21:21:03.359Z,25.05
2022-12-03T21:23:32.028Z,24.77
2022-12-03T21:26:06.505Z,34.38
2022-12-03T21:28:33.426Z,25.65
2022-12-03T21:31:05.560Z,24.17
2022-12-03T21:33:32.162Z,24.45
2022-12-03T21:35:59.291Z,24.42
2022-12-03T21:38:27.445Z,24.20
2022-12-03T21:40:54.572Z,23.58
2022-12-03T21:43:21.204Z,24.50
2022-12-03T21:45:47.734Z,23.75
2022-12-03T21:48:15.275Z,24.20
2022-12-03T21:50:41.992Z,24.08
2022-12-03T21:53:09.489Z,25.08
2022-12-03T21:55:39.719Z,23.70
2022-12-03T21:58:07.390Z,23.27
2022-12-03T22:00:33.874Z,25.17
2022-12-03T22:03:00.333Z,25.90
2022-12-03T22:05:26.878Z,25.73
2022-12-03T22:07:53.279Z,25.50
2022-12-03T22:10:19.805Z,26.83
2022-12-03T22:12:46.169Z,25.77
2022-12-03T22:15:18.497Z,24.88
2022-12-03T22:17:45.386Z,24.85
2022-12-03T22:20:12.405Z,26.13
2022-12-03T22:22:38.893Z,24.30
2022-12-03T22:25:05.508Z,24.13
2022-12-03T22:27:31.856Z,24.10
2022-12-03T22:29:58.253Z,25.15
2022-12-03T22:32:24.921Z,25.08
2022-12-03T22:34:51.305Z,24.17
2022-12-03T22:37:17.830Z,25.77
2022-12-03T22:39:44.304Z,25.50
2022-12-03T22:42:10.686Z,24.17
2022-12-03T22:44:37.118Z,24.98
2022-12-03T22:47:03.818Z,25.27
2022-12-03T22:49:30.285Z,24.30
2022-12-03T22:51:56.630Z,24.63
2022-12-03T22:54:24.319Z,25.05
2022-12-03T22:56:50.827Z,24.65
2022-12-03T22:59:17.266Z,25.30
2022-12-03T23:01:43.673Z,24.13
2022-12-03T23:04:14.124Z,24.23
2022-12-03T23:06:40.649Z,24.55
2022-12-03T23:09:08.196Z,25.17
2022-12-03T23:11:35.580Z,24.27
2022-12-03T23:14:02.520Z,24.38
2022-12-03T23:16:31.236Z,24.77
2022-12-03T23:18:59.531Z,24.75
2022-12-03T23:21:30.181Z,24.65
2022-12-03T23:23:58.676Z,24.52
2022-12-03T23:26:25.127Z,24.83
2022-12-03T23:28:51.627Z,24.00
2022-12-03T23:31:24.240Z,25.30
2022-12-03T23:33:51.741Z,24.63
2022-12-03T23:36:20.143Z,24.75
2022-12-03T23:38:46.828Z,24.88
2022-12-03T23:41:16.191Z,23.17
2022-12-03T23:43:43.171Z,22.55
2022-12-03T23:46:15.182Z,25.80
2022-12-03T23:48:42.249Z,24.67
2022-12-03T23:51:11.884Z,24.10
2022-12-03T23:53:39.471Z,24.83
2022-12-03T23:56:13.092Z,25.70
2022-12-03T23:58:39.870Z,23.77
